Time;durP1;ratioP1;P1;durP2;ratioP2;P2;SDS_P1;SDS_P2;PMS_P1;PMS_P2;Temp;Humidity;BMP_temperature;BMP_pressure;BME280_temperature;BME280_humidity;BME280_pressure;Samples;Min_cycle;Max_cycle;Signal;HPM_P1;HPM_P2
2021/09/12 00:00:49;;;;;;;;;;;;;;;17.12;100.00;101722.56;4901388;30;19923;-68
2021/09/12 00:03:20;;;;;;;;;;;;;;;17.08;100.00;101727.31;4894391;30;20001;-68
2021/09/12 00:05:52;;;;;;;;;;;;;;;17.02;100.00;101720.00;4906703;30;19919;-68
2021/09/12 00:08:23;;;;;;;;;;;;;;;16.98;100.00;101726.59;4908319;30;19948;-68
2021/09/12 00:10:54;;;;;;;;;;;;;;;16.93;100.00;101732.34;4907337;30;19918;-69
2021/09/12 00:13:25;;;;;;;;;;;;;;;16.88;100.00;101725.81;4907738;30;20260;-68
2021/09/12 00:15:57;;;;;;;;;;;;;;;16.86;100.00;101733.06;4906279;30;19942;-68
2021/09/12 00:18:28;;;;;;;;;;;;;;;16.83;100.00;101734.22;4902246;30;19976;-69
2021/09/12 00:20:59;;;;;;;;;;;;;;;16.82;100.00;101732.56;4910428;30;19919;-68
2021/09/12 00:23:30;;;;;;;;;;;;;;;16.80;100.00;101731.03;4908296;30;20393;-68
2021/09/12 00:26:01;;;;;;;;;;;;;;;16.76;100.00;101733.13;4899336;30;19931;-68
2021/09/12 00:28:33;;;;;;;;;;;;;;;16.71;100.00;101725.63;4911212;30;20029;-69
2021/09/12 00:31:04;;;;;;;;;;;;;;;16.69;100.00;101724.09;4894562;30;19919;-68
2021/09/12 00:33:35;;;;;;;;;;;;;;;16.67;100.00;101726.06;4904895;30;19923;-68
2021/09/12 00:36:06;;;;;;;;;;;;;;;16.63;100.00;101725.53;4893915;30;19922;-68
2021/09/12 00:38:37;;;;;;;;;;;;;;;16.60;100.00;101728.47;4893745;30;19915;-68
2021/09/12 00:41:09;;;;;;;;;;;;;;;16.54;100.00;101718.47;4895221;30;19926;-68
2021/09/12 00:43:40;;;;;;;;;;;;;;;16.49;100.00;101721.56;4897163;30;19935;-68
2021/09/12 00:46:11;;;;;;;;;;;;;;;16.46;100.00;101711.25;4911629;30;19919;-68
2021/09/12 00:48:42;;;;;;;;;;;;;;;16.44;100.00;101707.09;4909348;30;19926;-68
2021/09/12 00:51:14;;;;;;;;;;;;;;;16.43;100.00;101708.09;4901737;30;20267;-68
2021/09/12 00:53:46;;;;;;;;;;;;;;;16.40;100.00;101700.44;4910826;30;20354;-69
2021/09/12 00:56:17;;;;;;;;;;;;;;;16.39;100.00;101704.06;4910067;30;20409;-68
2021/09/12 00:58:50;;;;;;;;;;;;;;;16.38;100.00;101708.53;4895172;30;20013;-68
2021/09/12 01:01:25;;;;;;;;;;;;;;;16.36;100.00;101710.47;4902293;30;19915;-68
2021/09/12 01:03:56;;;;;;;;;;;;;;;16.34;100.00;101706.34;4893439;30;19925;-68
2021/09/12 01:06:28;;;;;;;;;;;;;;;16.31;100.00;101704.81;4900782;30;19919;-68
2021/09/12 01:08:59;;;;;;;;;;;;;;;16.28;100.00;101707.72;4893322;30;20701;-69
2021/09/12 01:11:31;;;;;;;;;;;;;;;16.25;100.00;101695.66;4894032;30;19919;-68
2021/09/12 01:14:02;;;;;;;;;;;;;;;16.21;100.00;101694.28;4900720;30;19962;-68
2021/09/12 01:16:33;;;;;;;;;;;;;;;16.16;100.00;101693.88;4907750;30;19914;-68
2021/09/12 01:19:04;;;;;;;;;;;;;;;16.12;100.00;101694.31;4908213;30;19919;-68
2021/09/12 01:21:36;;;;;;;;;;;;;;;16.07;100.00;101694.75;4909289;30;20476;-68
2021/09/12 01:24:11;;;;;;;;;;;;;;;15.99;100.00;101686.72;4899988;30;20013;-68
2021/09/12 01:26:42;;;;;;;;;;;;;;;15.98;100.00;101693.78;4909031;30;19918;-68
2021/09/12 01:29:13;;;;;;;;;;;;;;;15.93;100.00;101690.75;4911102;30;19925;-68
2021/09/12 01:31:45;;;;;;;;;;;;;;;15.89;100.00;101693.84;4895928;30;20026;-68
2021/09/12 01:34:16;;;;;;;;;;;;;;;15.86;100.00;101696.78;4904098;30;19929;-68
2021/09/12 01:36:48;;;;;;;;;;;;;;;15.82;100.00;101698.88;4906525;30;19918;-68
2021/09/12 01:39:19;;;;;;;;;;;;;;;15.79;100.00;101693.84;4900003;30;19919;-69
2021/09/12 01:41:50;;;;;;;;;;;;;;;15.76;100.00;101694.16;4899537;30;20371;-68
2021/09/12 01:44:24;;;;;;;;;;;;;;;15.71;100.00;101693.75;4904275;30;20012;-68
2021/09/12 01:46:56;;;;;;;;;;;;;;;15.66;100.00;101691.53;4902123;30;19923;-68
2021/09/12 01:49:27;;;;;;;;;;;;;;;15.63;100.00;101688.31;4893576;30;20417;-69
2021/09/12 01:51:59;;;;;;;;;;;;;;;15.57;100.00;101687.91;4903437;30;19965;-68
2021/09/12 01:54:30;;;;;;;;;;;;;;;15.54;100.00;101682.91;4908449;30;20291;-68
2021/09/12 01:57:01;;;;;;;;;;;;;;;15.49;100.00;101684.28;4892597;30;19919;-68
2021/09/12 01:59:33;;;;;;;;;;;;;;;15.46;100.00;101681.97;4903927;30;20010;-68
2021/09/12 02:02:04;;;;;;;;;;;;;;;15.43;100.00;101675.16;4907498;30;19918;-68
2021/09/12 02:04:35;;;;;;;;;;;;;;;15.40;100.00;101682.50;4895414;30;19954;-68
2021/09/12 02:07:06;;;;;;;;;;;;;;;15.36;100.00;101681.13;4904704;30;20028;-68
2021/09/12 02:09:38;;;;;;;;;;;;;;;15.31;100.00;101682.38;4906788;30;19926;-68
2021/09/12 02:12:09;;;;;;;;;;;;;;;15.28;100.00;101690.59;4909330;30;19927;-68
2021/09/12 02:14:40;;;;;;;;;;;;;;;15.23;100.00;101682.25;4910584;30;19925;-68
2021/09/12 02:17:11;;;;;;;;;;;;;;;15.19;100.00;101683.53;4904628;30;19923;-68
2021/09/12 02:19:42;;;;;;;;;;;;;;;15.13;100.00;101689.34;4902793;30;19922;-68
2021/09/12 02:22:14;;;;;;;;;;;;;;;15.10;100.00;101684.34;4910089;30;19973;-68
2021/09/12 02:24:45;;;;;;;;;;;;;;;15.03;100.00;101691.97;4906265;30;20401;-68
2021/09/12 02:27:16;;;;;;;;;;;;;;;15.00;100.00;101686.13;4893630;30;19923;-68
2021/09/12 02:29:47;;;;;;;;;;;;;;;14.98;100.00;101691.56;4897001;30;19973;-68
2021/09/12 02:32:19;;;;;;;;;;;;;;;14.94;100.00;101687.53;4914014;30;19926;-68
2021/09/12 02:34:50;;;;;;;;;;;;;;;14.89;100.00;101691.53;4910366;30;19927;-68
2021/09/12 02:37:21;;;;;;;;;;;;;;;14.84;100.00;101690.16;4909839;30;19919;-68
2021/09/12 02:39:52;;;;;;;;;;;;;;;14.82;100.00;101697.38;4895828;30;19919;-68
2021/09/12 02:42:23;;;;;;;;;;;;;;;14.81;100.00;101690.44;4895163;30;20037;-68
2021/09/12 02:44:55;;;;;;;;;;;;;;;14.77;100.00;101694.34;4907251;30;20410;-69
2021/09/12 02:47:26;;;;;;;;;;;;;;;14.73;100.00;101686.81;4901656;30;19919;-68
2021/09/12 02:49:57;;;;;;;;;;;;;;;14.69;100.00;101696.78;4895872;30;19915;-68
2021/09/12 02:52:28;;;;;;;;;;;;;;;14.67;100.00;101695.28;4902266;30;20025;-68
2021/09/12 02:54:59;;;;;;;;;;;;;;;14.62;100.00;101694.84;4897235;30;19919;-68
2021/09/12 02:57:31;;;;;;;;;;;;;;;14.58;100.00;101689.00;4895912;30;19915;-69
2021/09/12 03:00:02;;;;;;;;;;;;;;;14.53;100.00;101692.03;4896530;30;20359;-67
2021/09/12 03:02:34;;;;;;;;;;;;;;;14.51;100.00;101693.16;4909997;30;19919;-68
2021/09/12 03:05:05;;;;;;;;;;;;;;;14.49;100.00;101697.69;4913467;30;20279;-67
2021/09/12 03:07:36;;;;;;;;;;;;;;;14.47;100.00;101696.97;4913835;30;19922;-68
2021/09/12 03:10:08;;;;;;;;;;;;;;;14.46;100.00;101696.16;4903550;30;19971;-68
2021/09/12 03:12:39;;;;;;;;;;;;;;;14.41;100.00;101701.00;4897622;30;19987;-68
2021/09/12 03:15:10;;;;;;;;;;;;;;;14.38;100.00;101700.44;4895439;30;19915;-68
2021/09/12 03:17:43;;;;;;;;;;;;;;;14.35;100.00;101694.44;4904809;30;19918;-67
2021/09/12 03:20:14;;;;;;;;;;;;;;;14.33;100.00;101698.22;4906046;30;19976;-68
2021/09/12 03:22:45;;;;;;;;;;;;;;;14.30;100.00;101696.66;4913444;30;19923;-67
2021/09/12 03:25:17;;;;;;;;;;;;;;;14.28;100.00;101692.47;4905670;30;19977;-68
2021/09/12 03:27:48;;;;;;;;;;;;;;;14.24;100.00;101691.91;4906775;30;20302;-67
2021/09/12 03:30:20;;;;;;;;;;;;;;;14.21;100.00;101686.09;4906313;30;19926;-67
2021/09/12 03:32:51;;;;;;;;;;;;;;;14.18;100.00;101689.00;4895309;30;19972;-68
2021/09/12 03:35:22;;;;;;;;;;;;;;;14.14;100.00;101685.78;4901687;30;20008;-67
2021/09/12 03:37:54;;;;;;;;;;;;;;;14.11;100.00;101692.16;4911946;30;20143;-67
2021/09/12 03:40:25;;;;;;;;;;;;;;;14.09;100.00;101695.88;4912521;30;19918;-67
2021/09/12 03:42:57;;;;;;;;;;;;;;;14.07;100.00;101695.19;4905465;30;20418;-67
2021/09/12 03:45:28;;;;;;;;;;;;;;;14.04;100.00;101684.91;4898929;30;20006;-67
2021/09/12 03:48:02;;;;;;;;;;;;;;;14.03;100.00;101691.16;4910759;30;19945;-68
2021/09/12 03:50:33;;;;;;;;;;;;;;;14.01;100.00;101683.38;4910234;30;20365;-68
2021/09/12 03:53:05;;;;;;;;;;;;;;;13.98;100.00;101685.41;4905954;30;20209;-68
2021/09/12 03:55:36;;;;;;;;;;;;;;;13.95;100.00;101694.44;4912410;30;20405;-68
2021/09/12 03:58:07;;;;;;;;;;;;;;;13.94;100.00;101690.16;4910359;30;19926;-67
2021/09/12 04:00:39;;;;;;;;;;;;;;;13.91;100.00;101684.31;4906368;30;19919;-67
2021/09/12 04:03:10;;;;;;;;;;;;;;;13.88;100.00;101686.22;4897118;30;20361;-67
2021/09/12 04:05:42;;;;;;;;;;;;;;;13.85;100.00;101686.47;4902038;30;19919;-68
2021/09/12 04:08:13;;;;;;;;;;;;;;;13.83;100.00;101687.59;4909680;30;20201;-67
2021/09/12 04:10:44;;;;;;;;;;;;;;;13.82;100.00;101683.28;4903590;30;19927;-67
2021/09/12 04:13:15;;;;;;;;;;;;;;;13.80;100.00;101688.69;4910274;30;19919;-67
2021/09/12 04:15:46;;;;;;;;;;;;;;;13.79;100.00;101692.28;4912093;30;19965;-68
2021/09/12 04:18:18;;;;;;;;;;;;;;;13.77;100.00;101698.63;4901401;30;19926;-67
2021/09/12 04:20:49;;;;;;;;;;;;;;;13.75;100.00;101695.28;4910771;30;19997;-67
2021/09/12 04:23:20;;;;;;;;;;;;;;;13.73;100.00;101692.78;4910530;30;19927;-67
2021/09/12 04:25:51;;;;;;;;;;;;;;;13.71;100.00;101693.88;4908798;30;20314;-67
2021/09/12 04:28:22;;;;;;;;;;;;;;;13.70;100.00;101692.22;4900992;30;19965;-67
2021/09/12 04:30:55;;;;;;;;;;;;;;;13.69;100.00;101695.81;4900854;30;19919;-67
2021/09/12 04:33:27;;;;;;;;;;;;;;;13.66;100.00;101696.91;4894526;30;20516;-68
2021/09/12 04:35:58;;;;;;;;;;;;;;;13.63;100.00;101700.63;4899106;30;20010;-67
2021/09/12 04:38:29;;;;;;;;;;;;;;;13.61;100.00;101699.94;4897881;30;19914;-68
2021/09/12 04:41:01;;;;;;;;;;;;;;;13.58;100.00;101702.81;4902978;30;19923;-68
2021/09/12 04:43:32;;;;;;;;;;;;;;;13.57;100.00;101700.31;4910160;30;19930;-68
2021/09/12 04:46:03;;;;;;;;;;;;;;;13.54;100.00;101708.47;4902621;30;20291;-67
2021/09/12 04:48:34;;;;;;;;;;;;;;;13.53;100.00;101712.09;4894764;30;20025;-68
2021/09/12 04:51:05;;;;;;;;;;;;;;;13.50;100.00;101707.06;4908650;30;19918;-67
2021/09/12 04:53:37;;;;;;;;;;;;;;;13.47;100.00;101712.56;4902590;30;19926;-68
2021/09/12 04:56:08;;;;;;;;;;;;;;;13.45;100.00;101712.72;4924139;30;19927;-68
2021/09/12 04:58:39;;;;;;;;;;;;;;;13.44;100.00;101716.28;4908642;30;19918;-68
2021/09/12 05:01:10;;;;;;;;;;;;;;;13.41;100.00;101711.31;4895966;30;19923;-67
2021/09/12 05:03:42;;;;;;;;;;;;;;;13.39;100.00;101713.22;4906987;30;20021;-67
2021/09/12 05:06:13;;;;;;;;;;;;;;;13.38;100.00;101714.19;4893339;30;20347;-67
2021/09/12 05:08:44;;;;;;;;;;;;;;;13.37;100.00;101707.22;4893557;30;19919;-67
2021/09/12 05:11:15;;;;;;;;;;;;;;;13.35;100.00;101715.25;4903542;30;19926;-67
2021/09/12 05:13:46;;;;;;;;;;;;;;;13.34;100.00;101713.59;4896637;30;19922;-68
2021/09/12 05:16:18;;;;;;;;;;;;;;;13.34;100.00;101712.78;4893715;30;19923;-67
2021/09/12 05:18:51;;;;;;;;;;;;;;;13.32;100.00;101718.16;4894972;30;20013;-69
2021/09/12 05:21:22;;;;;;;;;;;;;;;13.32;100.00;101717.31;4904051;30;19921;-68
2021/09/12 05:23:53;;;;;;;;;;;;;;;13.31;100.00;101718.28;4911085;30;19919;-68
2021/09/12 05:26:24;;;;;;;;;;;;;;;13.30;100.00;101725.34;4910114;30;19923;-68
2021/09/12 05:28:55;;;;;;;;;;;;;;;13.29;100.00;101721.03;4905148;30;19930;-69
2021/09/12 05:31:26;;;;;;;;;;;;;;;13.29;100.00;101725.47;4896692;30;19938;-68
2021/09/12 05:33:58;;;;;;;;;;;;;;;13.30;100.00;101720.09;4893091;30;20680;-68
2021/09/12 05:36:29;;;;;;;;;;;;;;;13.31;100.00;101721.75;4903034;30;19968;-67
2021/09/12 05:39:00;;;;;;;;;;;;;;;13.30;100.00;101720.09;4906293;30;19920;-68
2021/09/12 05:41:31;;;;;;;;;;;;;;;13.32;100.00;101725.22;4892981;30;19988;-68
2021/09/12 05:44:03;;;;;;;;;;;;;;;13.32;100.00;101717.31;4892656;30;19927;-68
2021/09/12 05:46:35;;;;;;;;;;;;;;;13.32;100.00;101719.94;4898319;30;20406;-68
2021/09/12 05:49:06;;;;;;;;;;;;;;;13.32;100.00;101717.31;4910606;30;19919;-69
2021/09/12 05:51:38;;;;;;;;;;;;;;;13.33;100.00;101721.59;4911047;30;19915;-68
2021/09/12 05:54:09;;;;;;;;;;;;;;;13.32;100.00;101731.31;4905868;30;19954;-68
2021/09/12 05:56:40;;;;;;;;;;;;;;;13.34;100.00;101725.94;4906463;30;19922;-67
2021/09/12 05:59:11;;;;;;;;;;;;;;;13.34;100.00;101729.41;4893508;30;19923;-68
2021/09/12 06:01:43;;;;;;;;;;;;;;;13.38;100.00;101735.25;4908375;30;19984;-68
2021/09/12 06:04:14;;;;;;;;;;;;;;;13.37;100.00;101731.78;4893194;30;19942;-68
2021/09/12 06:06:45;;;;;;;;;;;;;;;13.39;100.00;101737.72;4906862;30;20417;-68
2021/09/12 06:09:17;;;;;;;;;;;;;;;13.42;100.00;101733.19;4892202;30;19927;-68
2021/09/12 06:11:48;;;;;;;;;;;;;;;13.42;100.00;101723.50;4892998;30;20351;-68
2021/09/12 06:14:20;;;;;;;;;;;;;;;13.46;100.00;101734.63;4901318;30;19993;-69
2021/09/12 06:16:51;;;;;;;;;;;;;;;13.48;100.00;101728.22;4899923;30;19915;-68
2021/09/12 06:19:22;;;;;;;;;;;;;;;13.50;100.00;101733.38;4898537;30;19930;-68
2021/09/12 06:21:53;;;;;;;;;;;;;;;13.52;100.00;101736.72;4905373;30;19991;-68
2021/09/12 06:24:24;;;;;;;;;;;;;;;13.54;100.00;101737.44;4910050;30;19923;-68
2021/09/12 06:26:56;;;;;;;;;;;;;;;13.56;100.00;101736.34;4910477;30;19966;-67
2021/09/12 06:29:27;;;;;;;;;;;;;;;13.60;100.00;101742.19;4910392;30;19925;-67
2021/09/12 06:31:58;;;;;;;;;;;;;;;13.63;100.00;101739.28;4898957;30;19919;-68
2021/09/12 06:34:29;;;;;;;;;;;;;;;13.68;100.00;101742.41;4897846;30;19930;-67
2021/09/12 06:37:00;;;;;;;;;;;;;;;13.71;100.00;101743.91;4905399;30;19925;-68
2021/09/12 06:39:32;;;;;;;;;;;;;;;13.75;100.00;101747.97;4901617;30;19919;-68
2021/09/12 06:42:03;;;;;;;;;;;;;;;13.77;100.00;101754.78;4898272;30;19935;-68
2021/09/12 06:44:34;;;;;;;;;;;;;;;13.83;100.00;101742.91;4902137;30;19974;-70
2021/09/12 06:47:05;;;;;;;;;;;;;;;13.88;100.00;101741.53;4902396;30;20311;-68
2021/09/12 06:49:37;;;;;;;;;;;;;;;13.93;100.00;101741.16;4898047;30;19926;-69
2021/09/12 06:52:08;;;;;;;;;;;;;;;13.99;100.00;101740.63;4901416;30;19923;-68
2021/09/12 06:54:39;;;;;;;;;;;;;;;14.04;100.00;101742.88;4899040;30;19962;-68
2021/09/12 06:57:10;;;;;;;;;;;;;;;14.09;100.00;101736.25;4895130;30;19919;-68
2021/09/12 06:59:42;;;;;;;;;;;;;;;14.15;100.00;101737.53;4900761;30;19918;-68
2021/09/12 07:02:13;;;;;;;;;;;;;;;14.21;100.00;101737.00;4907466;30;19954;-69
2021/09/12 07:04:44;;;;;;;;;;;;;;;14.27;100.00;101738.28;4903207;30;20001;-68
2021/09/12 07:07:15;;;;;;;;;;;;;;;14.31;100.00;101734.41;4897968;30;20301;-68
2021/09/12 07:09:46;;;;;;;;;;;;;;;14.36;100.00;101740.13;4905585;30;20020;-68
2021/09/12 07:12:17;;;;;;;;;;;;;;;14.41;100.00;101737.91;4906308;30;19922;-69
2021/09/12 07:14:49;;;;;;;;;;;;;;;14.45;100.00;101739.31;4905459;30;19922;-68
2021/09/12 07:17:20;;;;;;;;;;;;;;;14.49;100.00;101742.53;4907873;30;19919;-69
2021/09/12 07:19:51;;;;;;;;;;;;;;;14.54;100.00;101732.44;4907152;30;20002;-68
2021/09/12 07:22:22;;;;;;;;;;;;;;;14.58;100.00;101739.09;4908846;30;19918;-68
2021/09/12 07:24:53;;;;;;;;;;;;;;;14.62;100.00;101735.22;4908562;30;19918;-68
2021/09/12 07:27:25;;;;;;;;;;;;;;;14.64;100.00;101730.66;4909303;30;20416;-69
2021/09/12 07:29:56;;;;;;;;;;;;;;;14.70;100.00;101726.63;4909943;30;19922;-68
2021/09/12 07:32:27;;;;;;;;;;;;;;;14.75;100.00;101729.72;4908445;30;19918;-68
2021/09/12 07:34:58;;;;;;;;;;;;;;;14.79;100.00;101720.56;4904429;30;19942;-70
2021/09/12 07:37:30;;;;;;;;;;;;;;;14.85;100.00;101720.03;4912577;30;20030;-68
2021/09/12 07:40:01;;;;;;;;;;;;;;;14.91;100.00;101727.38;4908871;30;20355;-69
2021/09/12 07:42:32;;;;;;;;;;;;;;;14.98;100.00;101728.50;4905022;30;20017;-68
2021/09/12 07:45:04;;;;;;;;;;;;;;;15.04;100.00;101732.41;4907394;30;20029;-68
2021/09/12 07:47:35;;;;;;;;;;;;;;;15.08;100.00;101718.81;4906048;30;19926;-69
2021/09/12 07:50:07;;;;;;;;;;;;;;;15.12;100.00;101729.91;4908749;30;19992;-69
2021/09/12 07:52:42;;;;;;;;;;;;;;;15.14;100.00;101730.59;4909571;30;19965;-68
2021/09/12 07:55:15;;;;;;;;;;;;;;;15.18;100.00;101728.50;4903580;30;20017;-69
2021/09/12 07:57:46;;;;;;;;;;;;;;;15.21;100.00;101725.59;4898352;30;19926;-69
2021/09/12 08:00:17;;;;;;;;;;;;;;;15.28;100.00;101726.72;4894433;30;19923;-69
2021/09/12 08:02:49;;;;;;;;;;;;;;;15.34;100.00;101739.34;4901913;30;19919;-69
2021/09/12 08:05:21;;;;;;;;;;;;;;;15.38;100.00;101738.13;4906458;30;20417;-69
2021/09/12 08:07:52;;;;;;;;;;;;;;;15.45;100.00;101736.56;4902018;30;20025;-69
2021/09/12 08:10:23;;;;;;;;;;;;;;;15.54;100.00;101737.56;4905918;30;19919;-69
2021/09/12 08:12:54;;;;;;;;;;;;;;;15.64;100.00;101746.28;4911843;30;20397;-68
2021/09/12 08:15:26;;;;;;;;;;;;;;;15.72;100.00;101740.31;4908941;30;20000;-68
2021/09/12 08:17:57;;;;;;;;;;;;;;;15.79;100.00;101744.06;4906204;30;19915;-69
2021/09/12 08:20:28;;;;;;;;;;;;;;;15.87;100.00;101751.28;4903058;30;20391;-68
2021/09/12 08:22:59;;;;;;;;;;;;;;;15.93;100.00;101748.91;4910537;30;19966;-68
2021/09/12 08:25:30;;;;;;;;;;;;;;;15.95;100.00;101760.19;4911720;30;19979;-68
2021/09/12 08:28:02;;;;;;;;;;;;;;;16.02;100.00;101765.69;4904146;30;20329;-69
2021/09/12 08:30:33;;;;;;;;;;;;;;;16.10;100.00;101767.63;4896001;30;19927;-69
2021/09/12 08:33:11;;;;;;;;;;;;;;;16.22;100.00;101769.16;4907802;30;19910;-68
2021/09/12 08:35:43;;;;;;;;;;;;;;;16.36;100.00;101770.47;4908207;30;20279;-68
2021/09/12 08:38:15;;;;;;;;;;;;;;;16.49;100.00;101773.63;4904692;30;19972;-69
2021/09/12 08:40:46;;;;;;;;;;;;;;;16.62;100.00;101775.94;4904688;30;19973;-69
2021/09/12 08:43:17;;;;;;;;;;;;;;;16.72;100.00;101772.25;4905122;30;20311;-68
2021/09/12 08:45:49;;;;;;;;;;;;;;;16.85;100.00;101768.44;4906846;30;20267;-69
2021/09/12 08:48:20;;;;;;;;;;;;;;;16.97;100.00;101768.13;4905364;30;19927;-68
2021/09/12 08:50:51;;;;;;;;;;;;;;;17.08;100.00;101764.38;4905360;30;20353;-68
2021/09/12 08:53:23;;;;;;;;;;;;;;;17.20;100.00;101765.03;4900028;30;19930;-69
2021/09/12 08:55:55;;;;;;;;;;;;;;;17.26;100.00;101764.41;4908020;30;19927;-69
2021/09/12 08:58:27;;;;;;;;;;;;;;;17.32;100.00;101765.63;4905975;30;20381;-69
2021/09/12 09:00:59;;;;;;;;;;;;;;;17.41;100.00;101762.06;4901145;30;20005;-68
2021/09/12 09:03:41;;;;;;;;;;;;;;;17.49;100.00;101767.44;4906627;30;20434;-69
2021/09/12 09:06:19;;;;;;;;;;;;;;;17.60;100.00;101766.34;4907509;30;19919;-68
2021/09/12 09:08:52;;;;;;;;;;;;;;;17.72;100.00;101773.91;4905717;30;19930;-68
2021/09/12 09:11:36;;;;;;;;;;;;;;;17.76;100.00;101758.56;4906132;30;19923;-68
2021/09/12 09:14:13;;;;;;;;;;;;;;;17.88;100.00;101767.94;4906563;30;19914;-67
2021/09/12 09:16:45;;;;;;;;;;;;;;;17.94;100.00;101769.13;4905038;30;20017;-68
2021/09/12 09:19:17;;;;;;;;;;;;;;;17.96;100.00;101775.13;4903890;30;19946;-68
2021/09/12 09:21:48;;;;;;;;;;;;;;;17.99;100.00;101775.63;4906993;30;19961;-68
2021/09/12 09:24:29;;;;;;;;;;;;;;;18.06;100.00;101775.00;4907422;30;19923;-67
2021/09/12 09:27:03;;;;;;;;;;;;;;;18.17;100.00;101775.56;4902901;30;19966;-68
2021/09/12 09:29:35;;;;;;;;;;;;;;;18.26;100.00;101772.94;4898896;30;19927;-69
2021/09/12 09:32:08;;;;;;;;;;;;;;;18.34;100.00;101773.00;4902912;30;19934;-68
2021/09/12 09:34:40;;;;;;;;;;;;;;;18.42;100.00;101781.84;4907812;30;19915;-68
2021/09/12 09:37:11;;;;;;;;;;;;;;;18.45;100.00;101776.22;4908053;30;20323;-67
2021/09/12 09:39:47;;;;;;;;;;;;;;;18.46;100.00;101788.47;4905488;30;20021;-68
2021/09/12 09:42:35;;;;;;;;;;;;;;;18.48;100.00;101786.47;4904942;30;19919;-68
2021/09/12 09:45:12;;;;;;;;;;;;;;;18.45;100.00;101780.69;4909266;30;20487;-68
2021/09/12 09:47:44;;;;;;;;;;;;;;;18.47;100.00;101787.47;4902811;30;19966;-67
2021/09/12 09:50:20;;;;;;;;;;;;;;;18.53;100.00;101782.56;4899522;30;20414;-67
2021/09/12 09:52:53;;;;;;;;;;;;;;;18.61;100.00;101777.28;4906655;30;19927;-68
2021/09/12 09:55:25;;;;;;;;;;;;;;;18.69;100.00;101785.25;4903648;30;19962;-67
2021/09/12 09:57:56;;;;;;;;;;;;;;;18.81;100.00;101776.03;4899620;30;19969;-68
2021/09/12 10:00:27;;;;;;;;;;;;;;;19.00;100.00;101768.78;4906288;30;19927;-68
2021/09/12 10:03:00;;;;;;;;;;;;;;;19.20;100.00;101781.59;4902059;30;20382;-67
2021/09/12 10:05:31;;;;;;;;;;;;;;;19.26;100.00;101772.16;4894009;30;19919;-67
2021/09/12 10:08:05;;;;;;;;;;;;;;;19.26;100.00;101776.63;4896722;30;19923;-68
2021/09/12 10:10:36;;;;;;;;;;;;;;;19.21;100.00;101774.47;4908706;30;19922;-67
2021/09/12 10:13:07;;;;;;;;;;;;;;;19.25;100.00;101773.16;4898651;30;19926;-67
2021/09/12 10:15:40;;;;;;;;;;;;;;;19.29;100.00;101774.47;4903436;30;19925;-68
2021/09/12 10:18:12;;;;;;;;;;;;;;;19.39;100.00;101769.81;4901029;30;20719;-68
2021/09/12 10:20:43;;;;;;;;;;;;;;;19.49;100.00;101769.66;4901855;30;19923;-67
2021/09/12 10:23:15;;;;;;;;;;;;;;;19.55;100.00;101763.69;4896580;30;19987;-68
2021/09/12 10:25:46;;;;;;;;;;;;;;;19.67;100.00;101772.19;4900712;30;19919;-68
2021/09/12 10:28:34;;;;;;;;;;;;;;;19.75;100.00;101766.03;4898248;30;20013;-68
2021/09/12 10:31:31;;;;;;;;;;;;;;;19.80;100.00;101767.19;4901648;30;20393;-67
2021/09/12 10:34:02;;;;;;;;;;;;;;;19.79;100.00;101768.19;4902897;30;19989;-68
2021/09/12 10:36:34;;;;;;;;;;;;;;;19.87;100.00;101764.69;4904636;30;19930;-68
2021/09/12 10:39:20;;;;;;;;;;;;;;;19.96;100.00;101765.50;4901326;30;19925;-68
2021/09/12 10:42:09;;;;;;;;;;;;;;;20.09;100.00;101757.84;4899349;30;20067;-68
2021/09/12 10:44:41;;;;;;;;;;;;;;;20.23;100.00;101766.91;4898904;30;19923;-68
2021/09/12 10:47:13;;;;;;;;;;;;;;;20.28;100.00;101765.44;4895045;30;19918;-69
2021/09/12 10:49:44;;;;;;;;;;;;;;;20.40;100.00;101763.22;4901304;30;19929;-67
2021/09/12 10:52:34;;;;;;;;;;;;;;;20.51;100.00;101765.53;4902074;30;20574;-68
2021/09/12 10:55:08;;;;;;;;;;;;;;;20.58;100.00;101765.69;4902502;30;19923;-68
2021/09/12 10:57:40;;;;;;;;;;;;;;;20.64;100.00;101764.97;4900285;30;19918;-68
2021/09/12 11:00:11;;;;;;;;;;;;;;;20.73;100.00;101773.75;4906709;30;19926;-68
2021/09/12 11:02:49;;;;;;;;;;;;;;;20.77;100.00;101775.06;4901606;30;19975;-68
2021/09/12 11:05:24;;;;;;;;;;;;;;;20.78;100.00;101772.22;4903299;30;19919;-68
2021/09/12 11:09:34;;;;;;;16.80;13.73;;;;;;;20.35;100.00;101774.38;5312711;27;20350;-69
2021/09/12 11:12:06;;;;;;;16.30;12.83;;;;;;;20.30;100.00;101768.72;5284716;28;20036;-69
2021/09/12 11:14:39;;;;;;;17.63;13.03;;;;;;;20.23;100.00;101777.56;5281861;28;20033;-69
2021/09/12 11:17:12;;;;;;;17.20;12.20;;;;;;;20.14;100.00;101780.25;5290184;28;20029;-69
2021/09/12 11:19:53;;;;;;;15.75;12.88;;;;;;;20.13;100.00;101777.78;5289509;28;20114;-70
2021/09/12 11:22:24;;;;;;;15.43;12.52;;;;;;;20.25;100.00;101768.41;5281133;28;20036;-69
2021/09/12 11:25:03;;;;;;;15.67;12.70;;;;;;;20.40;100.00;101766.69;5290599;28;20040;-69
2021/09/12 11:27:35;;;;;;;14.20;11.50;;;;;;;20.61;100.00;101762.69;5282763;28;20035;-69
2021/09/12 11:30:08;;;;;;;14.77;13.27;;;;;;;20.73;100.00;101757.78;5297374;28;20812;-69
2021/09/12 11:32:50;;;;;;;15.05;13.27;;;;;;;20.97;100.00;101760.28;5308920;28;20117;-69
2021/09/12 11:35:21;;;;;;;14.65;13.13;;;;;;;20.73;100.00;101771.09;5292945;28;20373;-69
2021/09/12 11:38:04;;;;;;;15.90;13.87;;;;;;;20.73;100.00;101765.78;5304380;28;20035;-69
2021/09/12 11:40:36;;;;;;;18.25;15.00;;;;;;;20.47;100.00;101758.88;5306200;28;20024;-69
2021/09/12 11:43:16;;;;;;;15.70;13.65;;;;;;;20.78;100.00;101755.41;5304742;28;20031;-69
2021/09/12 11:46:02;;;;;;;15.88;13.80;;;;;;;21.11;100.00;101754.22;5283808;28;20071;-69
2021/09/12 11:48:33;;;;;;;16.63;14.15;;;;;;;21.14;100.00;101755.69;5297252;28;20035;-69
2021/09/12 11:51:05;;;;;;;16.20;14.47;;;;;;;21.29;100.00;101759.25;5288963;28;20021;-69
2021/09/12 11:53:36;;;;;;;16.30;14.80;;;;;;;21.28;100.00;101744.25;5286448;28;20449;-69
2021/09/12 11:56:09;;;;;;;16.83;15.10;;;;;;;21.30;100.00;101746.75;5286219;28;20119;-69
2021/09/12 11:58:41;;;;;;;16.10;14.20;;;;;;;21.53;100.00;101752.09;5304534;28;20448;-69
2021/09/12 12:01:13;;;;;;;15.00;13.43;;;;;;;21.70;100.00;101740.25;5298830;28;20104;-69
2021/09/12 12:03:44;;;;;;;16.70;14.87;;;;;;;22.01;100.00;101741.94;5292286;28;20035;-69
2021/09/12 12:06:16;;;;;;;14.23;12.73;;;;;;;22.13;100.00;101750.34;5296294;28;20052;-69
2021/09/12 12:09:09;;;;;;;15.97;13.20;;;;;;;22.26;100.00;101742.53;5298193;28;20115;-69
2021/09/12 12:11:42;;;;;;;14.55;13.05;;;;;;;21.89;100.00;101754.06;5292496;28;20116;-69
2021/09/12 12:14:18;;;;;;;17.65;15.25;;;;;;;21.86;100.00;101756.09;5305062;28;20039;-69
2021/09/12 12:16:51;;;;;;;20.65;15.35;;;;;;;21.61;100.00;101755.50;5299507;28;20032;-69
2021/09/12 12:19:32;;;;;;;18.55;15.98;;;;;;;21.70;100.00;101748.25;5293856;28;20037;-69
2021/09/12 12:22:06;;;;;;;16.52;14.93;;;;;;;21.69;100.00;101741.25;5268998;28;20024;-69
2021/09/12 12:24:43;;;;;;;19.98;16.40;;;;;;;21.89;100.00;101738.06;5278106;28;20162;-69
2021/09/12 12:27:17;;;;;;;22.25;16.20;;;;;;;22.01;100.00;101739.25;5281945;28;20128;-69
2021/09/12 12:30:00;;;;;;;20.40;16.50;;;;;;;22.10;100.00;101733.66;5285166;28;20025;-69
2021/09/12 12:32:32;;;;;;;15.88;14.15;;;;;;;22.18;100.00;101735.44;5278197;28;20494;-69
2021/09/12 12:35:14;;;;;;;16.63;14.93;;;;;;;22.17;100.00;101736.47;5290871;28;20063;-69
2021/09/12 12:37:46;;;;;;;19.20;14.20;;;;;;;22.23;100.00;101727.69;5291711;28;20016;-69
2021/09/12 12:40:19;;;;;;;15.02;13.52;;;;;;;22.30;100.00;101739.28;5285684;28;20028;-69
2021/09/12 12:43:00;;;;;;;15.55;13.98;;;;;;;22.55;100.00;101734.47;5297699;28;20720;-69